sensor_id;sensor_type;location;lat;lon;timestamp;P1;durP1;ratioP1;P2;durP2;ratioP2
39074;SDS011;24826;52.070;20.970;2023-04-25T00:01:05;9.00;;;4.30;;
39074;SDS011;24826;52.070;20.970;2023-04-25T00:03:50;6.45;;;4.35;;
39074;SDS011;24826;52.070;20.970;2023-04-25T00:06:34;8.98;;;4.65;;
39074;SDS011;24826;52.070;20.970;2023-04-25T00:09:21;6.78;;;4.18;;
39074;SDS011;24826;52.070;20.970;2023-04-25T00:12:06;9.40;;;4.25;;
39074;SDS011;24826;52.070;20.970;2023-04-25T00:14:51;7.28;;;4.35;;
39074;SDS011;24826;52.070;20.970;2023-04-25T00:17:35;5.95;;;3.55;;
39074;SDS011;24826;52.070;20.970;2023-04-25T00:20:22;6.55;;;4.32;;
39074;SDS011;24826;52.070;20.970;2023-04-25T00:23:07;5.82;;;3.97;;
39074;SDS011;24826;52.070;20.970;2023-04-25T00:25:52;5.72;;;3.95;;
39074;SDS011;24826;52.070;20.970;2023-04-25T00:28:36;6.70;;;4.57;;
39074;SDS011;24826;52.070;20.970;2023-04-25T00:31:21;6.20;;;4.18;;
39074;SDS011;24826;52.070;20.970;2023-04-25T00:34:06;8.02;;;4.70;;
39074;SDS011;24826;52.070;20.970;2023-04-25T00:36:50;6.88;;;4.05;;
39074;SDS011;24826;52.070;20.970;2023-04-25T00:39:35;7.93;;;3.97;;
39074;SDS011;24826;52.070;20.970;2023-04-25T00:42:19;6.30;;;3.97;;
39074;SDS011;24826;52.070;20.970;2023-04-25T00:45:05;7.13;;;4.30;;
39074;SDS011;24826;52.070;20.970;2023-04-25T00:47:51;6.75;;;4.32;;
39074;SDS011;24826;52.070;20.970;2023-04-25T00:50:36;6.43;;;4.10;;
39074;SDS011;24826;52.070;20.970;2023-04-25T00:53:23;7.55;;;4.63;;
39074;SDS011;24826;52.070;20.970;2023-04-25T00:56:09;8.88;;;4.45;;
39074;SDS011;24826;52.070;20.970;2023-04-25T00:58:54;5.88;;;4.03;;
39074;SDS011;24826;52.070;20.970;2023-04-25T01:01:40;6.15;;;4.68;;
39074;SDS011;24826;52.070;20.970;2023-04-25T01:04:26;6.90;;;4.90;;
39074;SDS011;24826;52.070;20.970;2023-04-25T01:07:11;8.20;;;4.70;;
39074;SDS011;24826;52.070;20.970;2023-04-25T01:09:56;6.03;;;4.25;;
39074;SDS011;24826;52.070;20.970;2023-04-25T01:12:41;6.45;;;4.07;;
39074;SDS011;24826;52.070;20.970;2023-04-25T01:15:25;8.10;;;4.50;;
39074;SDS011;24826;52.070;20.970;2023-04-25T01:18:10;5.95;;;3.95;;
39074;SDS011;24826;52.070;20.970;2023-04-25T01:20:54;6.38;;;4.22;;
39074;SDS011;24826;52.070;20.970;2023-04-25T01:23:40;6.05;;;4.07;;
39074;SDS011;24826;52.070;20.970;2023-04-25T01:26:24;5.75;;;4.32;;
39074;SDS011;24826;52.070;20.970;2023-04-25T01:29:09;6.70;;;4.30;;
39074;SDS011;24826;52.070;20.970;2023-04-25T01:31:54;6.07;;;4.28;;
39074;SDS011;24826;52.070;20.970;2023-04-25T01:34:38;6.72;;;4.13;;
39074;SDS011;24826;52.070;20.970;2023-04-25T01:37:23;5.78;;;4.05;;
39074;SDS011;24826;52.070;20.970;2023-04-25T01:40:08;6.60;;;4.63;;
39074;SDS011;24826;52.070;20.970;2023-04-25T01:42:54;6.72;;;4.57;;
39074;SDS011;24826;52.070;20.970;2023-04-25T01:45:39;6.45;;;4.28;;
39074;SDS011;24826;52.070;20.970;2023-04-25T01:48:24;6.15;;;4.43;;
39074;SDS011;24826;52.070;20.970;2023-04-25T01:51:09;7.55;;;4.35;;
39074;SDS011;24826;52.070;20.970;2023-04-25T01:53:55;9.27;;;4.45;;
39074;SDS011;24826;52.070;20.970;2023-04-25T01:56:41;7.30;;;4.20;;
39074;SDS011;24826;52.070;20.970;2023-04-25T01:59:25;5.38;;;3.90;;
39074;SDS011;24826;52.070;20.970;2023-04-25T02:02:10;6.13;;;4.18;;
39074;SDS011;24826;52.070;20.970;2023-04-25T02:04:54;6.35;;;4.13;;
39074;SDS011;24826;52.070;20.970;2023-04-25T02:07:39;5.93;;;3.67;;
39074;SDS011;24826;52.070;20.970;2023-04-25T02:10:23;7.70;;;4.93;;
39074;SDS011;24826;52.070;20.970;2023-04-25T02:13:07;6.13;;;4.13;;
39074;SDS011;24826;52.070;20.970;2023-04-25T02:15:52;6.57;;;4.13;;
39074;SDS011;24826;52.070;20.970;2023-04-25T02:18:36;6.30;;;4.28;;
39074;SDS011;24826;52.070;20.970;2023-04-25T02:21:21;7.43;;;4.25;;
39074;SDS011;24826;52.070;20.970;2023-04-25T02:24:05;6.63;;;4.30;;
39074;SDS011;24826;52.070;20.970;2023-04-25T02:26:50;5.97;;;4.40;;
39074;SDS011;24826;52.070;20.970;2023-04-25T02:29:35;5.68;;;3.92;;
39074;SDS011;24826;52.070;20.970;2023-04-25T02:32:19;7.43;;;5.22;;
39074;SDS011;24826;52.070;20.970;2023-04-25T02:35:04;5.72;;;4.07;;
39074;SDS011;24826;52.070;20.970;2023-04-25T02:37:49;5.65;;;4.00;;
39074;SDS011;24826;52.070;20.970;2023-04-25T02:40:34;5.18;;;3.70;;
39074;SDS011;24826;52.070;20.970;2023-04-25T02:43:19;6.95;;;4.63;;
39074;SDS011;24826;52.070;20.970;2023-04-25T02:46:06;5.35;;;3.92;;
39074;SDS011;24826;52.070;20.970;2023-04-25T02:48:50;5.53;;;4.18;;
39074;SDS011;24826;52.070;20.970;2023-04-25T02:51:35;5.57;;;3.80;;
39074;SDS011;24826;52.070;20.970;2023-04-25T02:54:19;6.40;;;4.20;;
39074;SDS011;24826;52.070;20.970;2023-04-25T02:57:04;5.25;;;3.72;;
39074;SDS011;24826;52.070;20.970;2023-04-25T02:59:48;7.80;;;4.28;;
39074;SDS011;24826;52.070;20.970;2023-04-25T03:02:33;6.10;;;4.30;;
39074;SDS011;24826;52.070;20.970;2023-04-25T03:05:18;5.53;;;4.13;;
39074;SDS011;24826;52.070;20.970;2023-04-25T03:08:02;6.35;;;4.30;;
39074;SDS011;24826;52.070;20.970;2023-04-25T03:10:46;5.05;;;3.67;;
39074;SDS011;24826;52.070;20.970;2023-04-25T03:13:32;5.82;;;3.88;;
39074;SDS011;24826;52.070;20.970;2023-04-25T03:16:16;5.70;;;4.05;;
39074;SDS011;24826;52.070;20.970;2023-04-25T03:19:01;5.10;;;3.55;;
39074;SDS011;24826;52.070;20.970;2023-04-25T03:21:46;7.15;;;3.70;;
39074;SDS011;24826;52.070;20.970;2023-04-25T03:24:31;6.57;;;3.60;;
39074;SDS011;24826;52.070;20.970;2023-04-25T03:27:15;5.45;;;3.67;;
39074;SDS011;24826;52.070;20.970;2023-04-25T03:29:59;5.30;;;3.47;;
39074;SDS011;24826;52.070;20.970;2023-04-25T03:32:44;5.82;;;3.65;;
39074;SDS011;24826;52.070;20.970;2023-04-25T03:35:28;6.25;;;3.70;;
39074;SDS011;24826;52.070;20.970;2023-04-25T03:38:12;5.30;;;3.55;;
39074;SDS011;24826;52.070;20.970;2023-04-25T03:40:57;5.00;;;3.40;;
39074;SDS011;24826;52.070;20.970;2023-04-25T03:43:41;5.68;;;3.65;;
39074;SDS011;24826;52.070;20.970;2023-04-25T03:46:26;5.80;;;3.78;;
39074;SDS011;24826;52.070;20.970;2023-04-25T03:49:10;4.93;;;3.50;;
39074;SDS011;24826;52.070;20.970;2023-04-25T03:51:55;4.85;;;3.33;;
39074;SDS011;24826;52.070;20.970;2023-04-25T03:54:39;5.60;;;3.17;;
39074;SDS011;24826;52.070;20.970;2023-04-25T03:57:24;5.40;;;3.30;;
39074;SDS011;24826;52.070;20.970;2023-04-25T04:00:08;4.68;;;3.13;;
39074;SDS011;24826;52.070;20.970;2023-04-25T04:02:53;4.55;;;3.40;;
39074;SDS011;24826;52.070;20.970;2023-04-25T04:05:38;5.10;;;3.40;;
39074;SDS011;24826;52.070;20.970;2023-04-25T04:08:25;6.18;;;3.30;;
39074;SDS011;24826;52.070;20.970;2023-04-25T04:11:09;5.38;;;3.28;;
39074;SDS011;24826;52.070;20.970;2023-04-25T04:13:54;5.18;;;3.10;;
39074;SDS011;24826;52.070;20.970;2023-04-25T04:16:38;5.35;;;3.47;;
39074;SDS011;24826;52.070;20.970;2023-04-25T04:19:23;6.38;;;3.80;;
39074;SDS011;24826;52.070;20.970;2023-04-25T04:22:08;5.45;;;3.58;;
39074;SDS011;24826;52.070;20.970;2023-04-25T04:24:52;5.78;;;3.55;;
39074;SDS011;24826;52.070;20.970;2023-04-25T04:27:37;5.10;;;3.15;;
39074;SDS011;24826;52.070;20.970;2023-04-25T04:30:22;7.63;;;3.97;;
39074;SDS011;24826;52.070;20.970;2023-04-25T04:33:13;5.65;;;3.58;;
39074;SDS011;24826;52.070;20.970;2023-04-25T04:35:59;11.73;;;3.83;;
39074;SDS011;24826;52.070;20.970;2023-04-25T04:38:44;9.27;;;4.18;;
39074;SDS011;24826;52.070;20.970;2023-04-25T04:41:29;6.22;;;3.70;;
39074;SDS011;24826;52.070;20.970;2023-04-25T04:44:14;5.20;;;3.33;;
39074;SDS011;24826;52.070;20.970;2023-04-25T04:46:59;5.72;;;3.47;;
39074;SDS011;24826;52.070;20.970;2023-04-25T04:49:43;17.13;;;5.07;;
39074;SDS011;24826;52.070;20.970;2023-04-25T04:52:28;5.43;;;3.58;;
39074;SDS011;24826;52.070;20.970;2023-04-25T04:55:12;8.20;;;3.75;;
39074;SDS011;24826;52.070;20.970;2023-04-25T04:57:57;5.45;;;3.25;;
39074;SDS011;24826;52.070;20.970;2023-04-25T05:00:41;7.32;;;4.10;;
39074;SDS011;24826;52.070;20.970;2023-04-25T05:03:25;13.55;;;4.25;;
39074;SDS011;24826;52.070;20.970;2023-04-25T05:06:11;9.60;;;3.47;;
39074;SDS011;24826;52.070;20.970;2023-04-25T05:08:55;10.63;;;3.42;;
39074;SDS011;24826;52.070;20.970;2023-04-25T05:11:40;5.63;;;3.45;;
39074;SDS011;24826;52.070;20.970;2023-04-25T05:14:25;6.85;;;3.63;;
39074;SDS011;24826;52.070;20.970;2023-04-25T05:17:09;9.98;;;3.67;;
39074;SDS011;24826;52.070;20.970;2023-04-25T05:19:53;9.00;;;3.78;;
39074;SDS011;24826;52.070;20.970;2023-04-25T05:22:38;6.30;;;3.45;;
39074;SDS011;24826;52.070;20.970;2023-04-25T05:25:22;6.65;;;3.45;;
39074;SDS011;24826;52.070;20.970;2023-04-25T05:28:07;7.03;;;3.35;;
39074;SDS011;24826;52.070;20.970;2023-04-25T05:30:52;10.32;;;3.50;;
39074;SDS011;24826;52.070;20.970;2023-04-25T05:33:36;7.28;;;3.45;;
39074;SDS011;24826;52.070;20.970;2023-04-25T05:36:21;6.10;;;3.30;;
39074;SDS011;24826;52.070;20.970;2023-04-25T05:39:05;6.30;;;3.50;;
39074;SDS011;24826;52.070;20.970;2023-04-25T05:41:50;7.30;;;3.10;;
39074;SDS011;24826;52.070;20.970;2023-04-25T05:44:34;6.35;;;3.05;;
39074;SDS011;24826;52.070;20.970;2023-04-25T05:47:19;7.85;;;3.50;;
39074;SDS011;24826;52.070;20.970;2023-04-25T05:50:03;6.00;;;3.03;;
39074;SDS011;24826;52.070;20.970;2023-04-25T05:52:47;5.70;;;2.90;;
39074;SDS011;24826;52.070;20.970;2023-04-25T05:55:32;5.78;;;2.90;;
39074;SDS011;24826;52.070;20.970;2023-04-25T05:58:16;4.75;;;2.83;;
39074;SDS011;24826;52.070;20.970;2023-04-25T06:01:01;5.30;;;3.20;;
39074;SDS011;24826;52.070;20.970;2023-04-25T06:03:46;5.18;;;3.00;;
39074;SDS011;24826;52.070;20.970;2023-04-25T06:06:30;4.35;;;2.70;;
39074;SDS011;24826;52.070;20.970;2023-04-25T06:09:15;5.63;;;3.03;;
39074;SDS011;24826;52.070;20.970;2023-04-25T06:12:00;6.10;;;3.20;;
39074;SDS011;24826;52.070;20.970;2023-04-25T06:14:45;5.18;;;2.78;;
39074;SDS011;24826;52.070;20.970;2023-04-25T06:17:29;5.72;;;2.47;;
39074;SDS011;24826;52.070;20.970;2023-04-25T06:20:14;5.15;;;3.05;;
39074;SDS011;24826;52.070;20.970;2023-04-25T06:22:58;4.40;;;2.42;;
39074;SDS011;24826;52.070;20.970;2023-04-25T06:25:43;7.40;;;2.85;;
39074;SDS011;24826;52.070;20.970;2023-04-25T06:28:27;6.97;;;2.80;;
39074;SDS011;24826;52.070;20.970;2023-04-25T06:31:12;4.95;;;2.55;;
39074;SDS011;24826;52.070;20.970;2023-04-25T06:33:56;4.72;;;2.58;;
39074;SDS011;24826;52.070;20.970;2023-04-25T06:36:41;5.97;;;2.60;;
39074;SDS011;24826;52.070;20.970;2023-04-25T06:39:25;4.47;;;2.33;;
39074;SDS011;24826;52.070;20.970;2023-04-25T06:42:10;5.15;;;2.60;;
39074;SDS011;24826;52.070;20.970;2023-04-25T06:44:54;5.72;;;2.40;;
39074;SDS011;24826;52.070;20.970;2023-04-25T06:47:39;6.25;;;2.63;;
39074;SDS011;24826;52.070;20.970;2023-04-25T06:50:23;3.85;;;2.30;;
39074;SDS011;24826;52.070;20.970;2023-04-25T06:53:08;6.72;;;2.50;;
39074;SDS011;24826;52.070;20.970;2023-04-25T06:55:53;3.97;;;2.13;;
39074;SDS011;24826;52.070;20.970;2023-04-25T06:58:37;5.75;;;2.92;;
39074;SDS011;24826;52.070;20.970;2023-04-25T07:01:21;7.60;;;2.58;;
39074;SDS011;24826;52.070;20.970;2023-04-25T07:04:06;4.32;;;2.20;;
39074;SDS011;24826;52.070;20.970;2023-04-25T07:06:50;4.78;;;2.20;;
39074;SDS011;24826;52.070;20.970;2023-04-25T07:09:35;3.60;;;2.03;;
39074;SDS011;24826;52.070;20.970;2023-04-25T07:12:19;3.90;;;2.30;;
39074;SDS011;24826;52.070;20.970;2023-04-25T07:15:04;4.25;;;2.20;;
39074;SDS011;24826;52.070;20.970;2023-04-25T07:17:50;4.03;;;2.30;;
39074;SDS011;24826;52.070;20.970;2023-04-25T07:20:34;4.35;;;2.00;;
39074;SDS011;24826;52.070;20.970;2023-04-25T07:23:18;13.70;;;2.42;;
39074;SDS011;24826;52.070;20.970;2023-04-25T07:26:02;4.30;;;2.08;;
39074;SDS011;24826;52.070;20.970;2023-04-25T07:28:47;17.70;;;3.28;;
39074;SDS011;24826;52.070;20.970;2023-04-25T07:31:34;4.18;;;2.35;;
39074;SDS011;24826;52.070;20.970;2023-04-25T07:34:19;4.47;;;2.10;;
39074;SDS011;24826;52.070;20.970;2023-04-25T07:37:04;8.50;;;2.35;;
39074;SDS011;24826;52.070;20.970;2023-04-25T07:39:49;4.35;;;2.33;;
39074;SDS011;24826;52.070;20.970;2023-04-25T07:42:33;4.75;;;2.10;;
39074;SDS011;24826;52.070;20.970;2023-04-25T07:45:18;5.28;;;2.63;;
39074;SDS011;24826;52.070;20.970;2023-04-25T07:48:02;6.13;;;2.30;;
39074;SDS011;24826;52.070;20.970;2023-04-25T07:50:46;5.30;;;2.28;;
39074;SDS011;24826;52.070;20.970;2023-04-25T07:53:34;5.22;;;2.40;;
39074;SDS011;24826;52.070;20.970;2023-04-25T07:56:19;5.30;;;2.28;;
39074;SDS011;24826;52.070;20.970;2023-04-25T07:59:04;4.13;;;2.40;;
39074;SDS011;24826;52.070;20.970;2023-04-25T08:01:48;5.10;;;2.35;;
39074;SDS011;24826;52.070;20.970;2023-04-25T08:04:32;3.85;;;2.10;;
39074;SDS011;24826;52.070;20.970;2023-04-25T08:07:17;7.20;;;2.53;;
39074;SDS011;24826;52.070;20.970;2023-04-25T08:10:01;4.72;;;2.10;;
39074;SDS011;24826;52.070;20.970;2023-04-25T08:12:45;4.45;;;2.38;;
39074;SDS011;24826;52.070;20.970;2023-04-25T08:15:30;4.28;;;1.90;;
39074;SDS011;24826;52.070;20.970;2023-04-25T08:18:14;7.82;;;2.40;;
39074;SDS011;24826;52.070;20.970;2023-04-25T08:20:59;4.15;;;2.08;;
39074;SDS011;24826;52.070;20.970;2023-04-25T08:23:43;6.85;;;2.20;;
39074;SDS011;24826;52.070;20.970;2023-04-25T08:26:28;3.70;;;2.00;;
39074;SDS011;24826;52.070;20.970;2023-04-25T08:29:13;4.75;;;2.15;;
39074;SDS011;24826;52.070;20.970;2023-04-25T08:31:57;3.88;;;2.00;;
39074;SDS011;24826;52.070;20.970;2023-04-25T08:34:41;4.38;;;2.08;;
39074;SDS011;24826;52.070;20.970;2023-04-25T08:37:26;4.72;;;2.10;;
39074;SDS011;24826;52.070;20.970;2023-04-25T08:40:11;4.53;;;2.20;;
39074;SDS011;24826;52.070;20.970;2023-04-25T08:42:57;5.93;;;2.03;;
39074;SDS011;24826;52.070;20.970;2023-04-25T08:45:44;5.93;;;2.35;;
39074;SDS011;24826;52.070;20.970;2023-04-25T08:48:31;5.78;;;2.33;;
39074;SDS011;24826;52.070;20.970;2023-04-25T08:51:23;3.85;;;2.20;;
39074;SDS011;24826;52.070;20.970;2023-04-25T08:54:12;6.15;;;1.90;;
39074;SDS011;24826;52.070;20.970;2023-04-25T08:57:00;6.13;;;2.10;;
39074;SDS011;24826;52.070;20.970;2023-04-25T08:59:48;3.80;;;1.92;;
39074;SDS011;24826;52.070;20.970;2023-04-25T09:02:33;4.82;;;2.00;;
39074;SDS011;24826;52.070;20.970;2023-04-25T09:05:18;5.75;;;2.05;;
39074;SDS011;24826;52.070;20.970;2023-04-25T09:08:02;5.40;;;2.22;;
39074;SDS011;24826;52.070;20.970;2023-04-25T09:10:46;4.95;;;2.10;;
39074;SDS011;24826;52.070;20.970;2023-04-25T09:13:31;3.97;;;1.55;;
39074;SDS011;24826;52.070;20.970;2023-04-25T09:16:15;4.25;;;2.00;;
39074;SDS011;24826;52.070;20.970;2023-04-25T09:19:03;4.88;;;2.00;;
39074;SDS011;24826;52.070;20.970;2023-04-25T09:21:50;4.70;;;1.70;;
39074;SDS011;24826;52.070;20.970;2023-04-25T09:27:24;4.30;;;1.90;;
39074;SDS011;24826;52.070;20.970;2023-04-25T09:30:11;7.95;;;2.55;;
39074;SDS011;24826;52.070;20.970;2023-04-25T09:32:56;4.13;;;1.77;;
39074;SDS011;24826;52.070;20.970;2023-04-25T09:35:43;5.22;;;1.88;;
39074;SDS011;24826;52.070;20.970;2023-04-25T09:38:29;4.65;;;1.92;;
39074;SDS011;24826;52.070;20.970;2023-04-25T09:41:25;4.30;;;1.88;;
39074;SDS011;24826;52.070;20.970;2023-04-25T09:44:12;5.00;;;2.20;;
39074;SDS011;24826;52.070;20.970;2023-04-25T09:46:57;3.72;;;2.20;;
39074;SDS011;24826;52.070;20.970;2023-04-25T09:49:43;2.85;;;1.60;;
39074;SDS011;24826;52.070;20.970;2023-04-25T09:52:27;4.93;;;2.13;;
39074;SDS011;24826;52.070;20.970;2023-04-25T09:55:12;5.38;;;2.08;;
39074;SDS011;24826;52.070;20.970;2023-04-25T09:57:56;5.40;;;2.15;;
39074;SDS011;24826;52.070;20.970;2023-04-25T10:00:47;3.78;;;1.88;;
39074;SDS011;24826;52.070;20.970;2023-04-25T10:03:32;5.03;;;1.80;;
39074;SDS011;24826;52.070;20.970;2023-04-25T10:06:19;7.63;;;2.08;;
39074;SDS011;24826;52.070;20.970;2023-04-25T10:09:05;5.45;;;1.90;;
39074;SDS011;24826;52.070;20.970;2023-04-25T10:11:52;4.97;;;1.90;;
39074;SDS011;24826;52.070;20.970;2023-04-25T10:14:37;5.10;;;2.08;;
39074;SDS011;24826;52.070;20.970;2023-04-25T10:17:22;6.22;;;2.05;;
39074;SDS011;24826;52.070;20.970;2023-04-25T10:20:07;3.58;;;1.92;;
39074;SDS011;24826;52.070;20.970;2023-04-25T10:22:54;5.18;;;1.75;;
39074;SDS011;24826;52.070;20.970;2023-04-25T10:25:42;5.72;;;1.90;;
39074;SDS011;24826;52.070;20.970;2023-04-25T10:28:27;4.55;;;1.90;;
39074;SDS011;24826;52.070;20.970;2023-04-25T10:31:12;4.60;;;1.90;;
39074;SDS011;24826;52.070;20.970;2023-04-25T10:34:00;5.00;;;1.65;;
39074;SDS011;24826;52.070;20.970;2023-04-25T10:36:51;4.38;;;2.03;;
39074;SDS011;24826;52.070;20.970;2023-04-25T10:39:38;6.03;;;1.80;;
39074;SDS011;24826;52.070;20.970;2023-04-25T10:42:24;4.47;;;1.80;;
39074;SDS011;24826;52.070;20.970;2023-04-25T10:45:08;3.70;;;1.60;;
39074;SDS011;24826;52.070;20.970;2023-04-25T10:47:53;4.25;;;1.85;;
39074;SDS011;24826;52.070;20.970;2023-04-25T10:50:38;4.55;;;2.08;;
39074;SDS011;24826;52.070;20.970;2023-04-25T10:53:24;5.25;;;1.90;;
39074;SDS011;24826;52.070;20.970;2023-04-25T10:56:21;6.20;;;1.92;;
39074;SDS011;24826;52.070;20.970;2023-04-25T10:59:08;3.88;;;2.00;;
39074;SDS011;24826;52.070;20.970;2023-04-25T11:01:54;4.78;;;1.80;;
39074;SDS011;24826;52.070;20.970;2023-04-25T11:04:40;5.43;;;1.80;;
39074;SDS011;24826;52.070;20.970;2023-04-25T11:07:33;5.28;;;2.05;;
39074;SDS011;24826;52.070;20.970;2023-04-25T11:10:21;6.78;;;1.90;;
39074;SDS011;24826;52.070;20.970;2023-04-25T11:13:09;4.95;;;1.70;;
39074;SDS011;24826;52.070;20.970;2023-04-25T11:15:54;6.63;;;2.00;;
39074;SDS011;24826;52.070;20.970;2023-04-25T11:18:42;4.65;;;1.63;;
39074;SDS011;24826;52.070;20.970;2023-04-25T11:21:27;3.38;;;1.40;;
39074;SDS011;24826;52.070;20.970;2023-04-25T11:24:11;4.30;;;1.70;;
39074;SDS011;24826;52.070;20.970;2023-04-25T11:26:57;3.40;;;1.80;;
39074;SDS011;24826;52.070;20.970;2023-04-25T11:29:42;4.32;;;1.60;;
39074;SDS011;24826;52.070;20.970;2023-04-25T11:32:26;4.88;;;1.73;;
39074;SDS011;24826;52.070;20.970;2023-04-25T11:35:11;5.90;;;1.73;;
39074;SDS011;24826;52.070;20.970;2023-04-25T11:37:56;5.32;;;1.80;;
39074;SDS011;24826;52.070;20.970;2023-04-25T11:40:41;3.40;;;1.95;;
39074;SDS011;24826;52.070;20.970;2023-04-25T11:43:25;5.60;;;1.80;;
39074;SDS011;24826;52.070;20.970;2023-04-25T11:46:10;3.38;;;1.48;;
39074;SDS011;24826;52.070;20.970;2023-04-25T11:48:55;4.03;;;1.65;;
39074;SDS011;24826;52.070;20.970;2023-04-25T11:51:43;2.83;;;1.30;;
39074;SDS011;24826;52.070;20.970;2023-04-25T11:54:29;4.63;;;1.95;;
39074;SDS011;24826;52.070;20.970;2023-04-25T11:57:14;3.20;;;1.40;;
39074;SDS011;24826;52.070;20.970;2023-04-25T12:00:06;6.13;;;1.80;;
39074;SDS011;24826;52.070;20.970;2023-04-25T12:02:52;3.85;;;1.52;;
39074;SDS011;24826;52.070;20.970;2023-04-25T12:05:38;3.42;;;1.33;;
39074;SDS011;24826;52.070;20.970;2023-04-25T12:08:23;2.15;;;1.15;;
39074;SDS011;24826;52.070;20.970;2023-04-25T12:11:19;3.35;;;1.33;;
39074;SDS011;24826;52.070;20.970;2023-04-25T12:14:05;3.05;;;1.40;;
39074;SDS011;24826;52.070;20.970;2023-04-25T12:16:50;4.28;;;1.45;;
39074;SDS011;24826;52.070;20.970;2023-04-25T12:19:36;3.38;;;1.42;;
39074;SDS011;24826;52.070;20.970;2023-04-25T12:22:22;4.07;;;1.30;;
39074;SDS011;24826;52.070;20.970;2023-04-25T12:25:08;4.10;;;1.55;;
39074;SDS011;24826;52.070;20.970;2023-04-25T12:27:53;3.67;;;1.42;;
39074;SDS011;24826;52.070;20.970;2023-04-25T12:33:37;3.47;;;1.52;;
39074;SDS011;24826;52.070;20.970;2023-04-25T12:36:23;2.90;;;1.33;;
39074;SDS011;24826;52.070;20.970;2023-04-25T12:39:07;2.95;;;1.42;;
39074;SDS011;24826;52.070;20.970;2023-04-25T12:41:52;3.85;;;1.50;;
39074;SDS011;24826;52.070;20.970;2023-04-25T12:44:38;4.93;;;1.67;;
39074;SDS011;24826;52.070;20.970;2023-04-25T12:47:22;3.38;;;1.48;;
39074;SDS011;24826;52.070;20.970;2023-04-25T12:50:07;3.28;;;1.38;;
39074;SDS011;24826;52.070;20.970;2023-04-25T12:52:52;3.67;;;1.52;;
39074;SDS011;24826;52.070;20.970;2023-04-25T12:55:37;2.75;;;1.13;;
39074;SDS011;24826;52.070;20.970;2023-04-25T12:58:21;4.43;;;1.52;;
39074;SDS011;24826;52.070;20.970;2023-04-25T13:01:05;3.45;;;1.20;;
39074;SDS011;24826;52.070;20.970;2023-04-25T13:03:50;2.72;;;1.42;;
39074;SDS011;24826;52.070;20.970;2023-04-25T13:06:35;4.03;;;1.20;;
39074;SDS011;24826;52.070;20.970;2023-04-25T13:09:19;3.08;;;1.45;;
39074;SDS011;24826;52.070;20.970;2023-04-25T13:12:04;3.20;;;1.40;;
39074;SDS011;24826;52.070;20.970;2023-04-25T13:14:49;2.50;;;1.27;;
39074;SDS011;24826;52.070;20.970;2023-04-25T13:17:34;3.63;;;1.30;;
39074;SDS011;24826;52.070;20.970;2023-04-25T13:20:18;2.80;;;1.48;;
39074;SDS011;24826;52.070;20.970;2023-04-25T13:23:06;3.30;;;1.33;;
39074;SDS011;24826;52.070;20.970;2023-04-25T13:25:50;2.90;;;1.13;;
39074;SDS011;24826;52.070;20.970;2023-04-25T13:28:35;4.20;;;1.40;;
39074;SDS011;24826;52.070;20.970;2023-04-25T13:31:19;3.50;;;1.40;;
39074;SDS011;24826;52.070;20.970;2023-04-25T13:34:03;3.33;;;1.20;;
39074;SDS011;24826;52.070;20.970;2023-04-25T13:36:48;2.53;;;1.23;;
39074;SDS011;24826;52.070;20.970;2023-04-25T13:39:33;3.33;;;1.40;;
39074;SDS011;24826;52.070;20.970;2023-04-25T13:42:17;2.92;;;1.10;;
39074;SDS011;24826;52.070;20.970;2023-04-25T13:45:02;3.17;;;1.60;;
39074;SDS011;24826;52.070;20.970;2023-04-25T13:47:46;3.42;;;1.40;;
39074;SDS011;24826;52.070;20.970;2023-04-25T13:50:31;3.38;;;1.20;;
39074;SDS011;24826;52.070;20.970;2023-04-25T13:53:15;3.25;;;1.40;;
39074;SDS011;24826;52.070;20.970;2023-04-25T13:56:00;2.83;;;1.13;;
39074;SDS011;24826;52.070;20.970;2023-04-25T13:58:44;3.92;;;1.38;;
39074;SDS011;24826;52.070;20.970;2023-04-25T14:01:29;2.30;;;1.10;;
39074;SDS011;24826;52.070;20.970;2023-04-25T14:04:15;2.63;;;1.27;;
39074;SDS011;24826;52.070;20.970;2023-04-25T14:07:00;2.67;;;1.25;;
39074;SDS011;24826;52.070;20.970;2023-04-25T14:09:45;3.80;;;1.10;;
39074;SDS011;24826;52.070;20.970;2023-04-25T14:12:29;4.65;;;1.65;;
39074;SDS011;24826;52.070;20.970;2023-04-25T14:15:13;2.30;;;1.13;;
39074;SDS011;24826;52.070;20.970;2023-04-25T14:17:59;2.92;;;1.08;;
39074;SDS011;24826;52.070;20.970;2023-04-25T14:20:43;3.00;;;1.33;;
39074;SDS011;24826;52.070;20.970;2023-04-25T14:23:28;2.90;;;1.00;;
39074;SDS011;24826;52.070;20.970;2023-04-25T14:26:13;2.28;;;1.05;;
39074;SDS011;24826;52.070;20.970;2023-04-25T14:28:57;1.98;;;1.10;;
39074;SDS011;24826;52.070;20.970;2023-04-25T14:31:41;2.75;;;1.20;;
39074;SDS011;24826;52.070;20.970;2023-04-25T14:34:26;2.25;;;1.10;;
39074;SDS011;24826;52.070;20.970;2023-04-25T14:37:11;2.55;;;1.15;;
39074;SDS011;24826;52.070;20.970;2023-04-25T14:39:55;2.90;;;1.10;;
39074;SDS011;24826;52.070;20.970;2023-04-25T14:42:39;2.75;;;1.17;;
39074;SDS011;24826;52.070;20.970;2023-04-25T14:45:24;1.77;;;1.00;;
39074;SDS011;24826;52.070;20.970;2023-04-25T14:48:09;2.03;;;1.05;;
39074;SDS011;24826;52.070;20.970;2023-04-25T14:50:54;1.88;;;1.05;;
39074;SDS011;24826;52.070;20.970;2023-04-25T14:53:39;2.65;;;1.02;;
39074;SDS011;24826;52.070;20.970;2023-04-25T14:56:24;2.08;;;1.00;;
39074;SDS011;24826;52.070;20.970;2023-04-25T14:59:09;3.03;;;1.20;;
39074;SDS011;24826;52.070;20.970;2023-04-25T15:01:53;2.15;;;1.17;;
39074;SDS011;24826;52.070;20.970;2023-04-25T15:04:38;25.02;;;5.00;;
39074;SDS011;24826;52.070;20.970;2023-04-25T15:07:22;8.45;;;2.58;;
39074;SDS011;24826;52.070;20.970;2023-04-25T15:10:07;11.00;;;2.53;;
39074;SDS011;24826;52.070;20.970;2023-04-25T15:12:57;7.05;;;1.83;;
39074;SDS011;24826;52.070;20.970;2023-04-25T15:15:41;4.63;;;1.70;;
39074;SDS011;24826;52.070;20.970;2023-04-25T15:18:26;23.75;;;4.25;;
39074;SDS011;24826;52.070;20.970;2023-04-25T15:21:11;19.63;;;3.65;;
39074;SDS011;24826;52.070;20.970;2023-04-25T15:23:55;18.27;;;4.47;;
39074;SDS011;24826;52.070;20.970;2023-04-25T15:26:40;13.73;;;3.55;;
39074;SDS011;24826;52.070;20.970;2023-04-25T15:29:25;18.58;;;4.70;;
39074;SDS011;24826;52.070;20.970;2023-04-25T15:32:10;13.27;;;3.83;;
39074;SDS011;24826;52.070;20.970;2023-04-25T15:34:55;18.05;;;3.38;;
39074;SDS011;24826;52.070;20.970;2023-04-25T15:37:40;7.40;;;3.03;;
39074;SDS011;24826;52.070;20.970;2023-04-25T15:40:24;9.30;;;3.25;;
39074;SDS011;24826;52.070;20.970;2023-04-25T15:43:09;10.15;;;3.45;;
39074;SDS011;24826;52.070;20.970;2023-04-25T15:45:58;10.17;;;2.90;;
39074;SDS011;24826;52.070;20.970;2023-04-25T15:48:43;13.15;;;3.17;;
39074;SDS011;24826;52.070;20.970;2023-04-25T15:51:28;9.20;;;3.25;;
39074;SDS011;24826;52.070;20.970;2023-04-25T15:54:13;9.13;;;3.05;;
39074;SDS011;24826;52.070;20.970;2023-04-25T15:56:57;7.43;;;3.03;;
39074;SDS011;24826;52.070;20.970;2023-04-25T15:59:41;9.93;;;3.00;;
39074;SDS011;24826;52.070;20.970;2023-04-25T16:02:26;9.57;;;2.53;;
39074;SDS011;24826;52.070;20.970;2023-04-25T16:05:10;9.30;;;3.55;;
39074;SDS011;24826;52.070;20.970;2023-04-25T16:07:57;6.22;;;2.35;;
39074;SDS011;24826;52.070;20.970;2023-04-25T16:10:41;9.63;;;2.63;;
39074;SDS011;24826;52.070;20.970;2023-04-25T16:13:26;6.75;;;2.78;;
39074;SDS011;24826;52.070;20.970;2023-04-25T16:16:10;8.38;;;2.75;;
39074;SDS011;24826;52.070;20.970;2023-04-25T16:18:55;11.98;;;2.83;;
39074;SDS011;24826;52.070;20.970;2023-04-25T16:21:39;6.60;;;2.13;;
39074;SDS011;24826;52.070;20.970;2023-04-25T16:24:25;6.40;;;2.22;;